^^

..:: Storico WU ::..




Lo storico viene creato da WUnderground con i dati che la stazione Meteomincio invia al loro server. L' aggiornamento viene fatto ogni 5 minuti circa, tuttavia possono esserci intervalli pił ampi a causa di errori, interruzioni di servizio o problemi nell' invio tramite FTP.


Storico stazione MeteoMincio
Giorno Sommario per Settembre 03, 2022 Unità:  Inglese    Metrico   Entrambi
Giorno Settimana Mese Anno
  Max: Min: Media:
Temperatura: 78.8 °F 64.4 °F 71.8 °F
Dew Point: 68 °F 59 °F 63.9 °F
Umidità: 90% 65% 77%
Velocità vento: 10.6mph 0mph 3.5mph
Raffica: 14.9mph - -
Direzione- - East
Pressione: 30 in 29.9 in -
Precipitazioni: 0.01 in    
 
 
Tabulato Dati per Settembre 03, 2022
Ora Temperatura Dew Point Pressione Direzione Velocità vento Raffica Umidità Intensità pioggia (oraria) Info solare Situazione
00:04 69.8 °F 60.8 °F 29.9 in East 2.5 mph 5 mph 74% 0 in 0.00 W/m2 unknown
00:09 69.8 °F 60.8 °F 29.9 in East 2.5 mph 6.2 mph 74% 0 in 0.00 W/m2 unknown
00:14 69.8 °F 60.8 °F 29.9 in ENE 3.1 mph 5 mph 74% 0 in 0.00 W/m2 unknown
00:19 69.8 °F 60.8 °F 29.9 in ENE 3.7 mph 5 mph 73% 0 in 0.00 W/m2 unknown
00:24 69.8 °F 60.8 °F 29.9 in ENE 3.1 mph 3.7 mph 74% 0 in 0.00 W/m2 unknown
00:29 69.8 °F 60.8 °F 29.9 in ENE 3.1 mph 3.7 mph 74% 0 in 0.00 W/m2 unknown
00:34 69.8 °F 60.8 °F 29.9 in NE 3.1 mph 3.7 mph 75% 0 in 0.00 W/m2 unknown
00:39 69.8 °F 60.8 °F 29.9 in ENE 1.9 mph 3.7 mph 76% 0 in 0.00 W/m2 unknown
00:44 68 °F 60.8 °F 29.9 in NNE 3.1 mph 5 mph 77% 0 in 0.00 W/m2 unknown
00:49 68 °F 60.8 °F 29.9 in NE 3.1 mph 5 mph 78% 0 in 0.00 W/m2 unknown
00:54 68 °F 60.8 °F 29.9 in NE 1.9 mph 3.7 mph 78% 0 in 0.00 W/m2 unknown
00:59 68 °F 60.8 °F 29.9 in NNE 1.9 mph 3.7 mph 78% 0 in 0.00 W/m2 unknown
01:04 68 °F 60.8 °F 29.9 in NNE 1.9 mph 3.7 mph 79% 0 in 0.00 W/m2 unknown
01:09 68 °F 60.8 °F 29.9 in NE 2.5 mph 3.7 mph 79% 0 in 0.00 W/m2 unknown
01:14 68 °F 60.8 °F 29.9 in NE 2.5 mph 3.7 mph 79% 0 in 0.00 W/m2 unknown
01:19 68 °F 60.8 °F 29.9 in NE 3.1 mph 3.7 mph 79% 0 in 0.00 W/m2 unknown
01:29 66.2 °F 60.8 °F 29.9 in NE 3.1 mph 3.7 mph 79% 0 in 0.00 W/m2 unknown
01:34 66.2 °F 60.8 °F 29.9 in NE 5 mph 6.8 mph 79% 0 in 0.00 W/m2 unknown
01:39 66.2 °F 59 °F 29.9 in ENE 5 mph 6.8 mph 79% 0 in 0.00 W/m2 unknown
01:44 66.2 °F 59 °F 29.9 in NE 3.7 mph 6.8 mph 79% 0 in 0.00 W/m2 unknown
01:49 66.2 °F 59 °F 29.9 in ENE 4.3 mph 6.8 mph 79% 0 in 0.00 W/m2 unknown
01:54 66.2 °F 59 °F 29.9 in ENE 3.7 mph 6.8 mph 79% 0 in 0.00 W/m2 unknown
01:59 66.2 °F 59 °F 29.9 in ENE 3.1 mph 5 mph 79% 0 in 0.00 W/m2 unknown
02:04 66.2 °F 59 °F 29.9 in NE 4.3 mph 6.8 mph 79% 0 in 0.00 W/m2 unknown
02:09 66.2 °F 59 °F 29.9 in NE 5.6 mph 6.8 mph 79% 0 in 0.00 W/m2 unknown
02:14 66.2 °F 59 °F 29.9 in NE 5.6 mph 6.8 mph 78% 0 in 0.00 W/m2 unknown
02:19 66.2 °F 59 °F 29.9 in ENE 5 mph 6.8 mph 77% 0 in 0.00 W/m2 unknown
02:24 66.2 °F 59 °F 29.9 in ENE 3.1 mph 6.8 mph 77% 0 in 0.00 W/m2 unknown
02:29 66.2 °F 59 °F 29.9 in ENE 3.1 mph 5 mph 78% 0 in 0.00 W/m2 unknown
02:34 66.2 °F 59 °F 29.9 in ENE 4.3 mph 5 mph 78% 0 in 0.00 W/m2 unknown
02:39 66.2 °F 59 °F 29.9 in ENE 4.3 mph 6.2 mph 78% 0 in 0.00 W/m2 unknown
02:44 66.2 °F 59 °F 29.9 in ENE 3.7 mph 6.2 mph 78% 0 in 0.00 W/m2 unknown
02:49 66.2 °F 59 °F 29.9 in ENE 3.1 mph 5 mph 78% 0 in 0.00 W/m2 unknown
02:54 66.2 °F 59 °F 29.9 in NE 3.7 mph 5 mph 78% 0 in 0.00 W/m2 unknown
02:59 66.2 °F 59 °F 29.9 in NE 3.7 mph 5 mph 78% 0 in 0.00 W/m2 unknown
03:04 66.2 °F 59 °F 29.9 in NE 3.1 mph 5 mph 77% 0 in 0.00 W/m2 unknown
03:09 66.2 °F 59 °F 30 in NE 3.7 mph 5 mph 77% 0 in 0.00 W/m2 unknown
03:14 66.2 °F 59 °F 30 in ENE 3.1 mph 5 mph 76% 0 in 0.00 W/m2 unknown
03:19 66.2 °F 59 °F 30 in ENE 2.5 mph 3.7 mph 76% 0 in 0.00 W/m2 unknown
03:24 66.2 °F 59 °F 30 in ENE 1.9 mph 3.7 mph 77% 0 in 0.00 W/m2 unknown
03:29 66.2 °F 59 °F 30 in NE 1.9 mph 3.7 mph 76% 0 in 0.00 W/m2 unknown
03:34 66.2 °F 59 °F 30 in NE 3.1 mph 3.7 mph 76% 0 in 0.00 W/m2 unknown
03:39 66.2 °F 59 °F 30 in NE 3.7 mph 3.7 mph 76% 0 in 0.00 W/m2 unknown
03:44 66.2 °F 59 °F 30 in ENE 3.7 mph 3.7 mph 76% 0 in 0.00 W/m2 unknown
03:49 66.2 °F 59 °F 30 in ENE 3.1 mph 3.7 mph 76% 0 in 0.00 W/m2 unknown
03:54 66.2 °F 59 °F 30 in ENE 2.5 mph 3.7 mph 76% 0 in 0.00 W/m2 unknown
03:59 66.2 °F 59 °F 30 in ENE 3.1 mph 3.7 mph 76% 0 in 0.00 W/m2 unknown
04:04 66.2 °F 59 °F 30 in ENE 3.1 mph 3.7 mph 76% 0 in 0.00 W/m2 unknown
04:09 66.2 °F 59 °F 30 in ENE 2.5 mph 3.7 mph 76% 0 in 0.00 W/m2 unknown
04:14 66.2 °F 59 °F 30 in ENE 1.9 mph 3.1 mph 76% 0 in 0.00 W/m2 unknown
04:19 66.2 °F 59 °F 30 in ENE 1.9 mph 3.7 mph 76% 0 in 0.00 W/m2 unknown
04:24 66.2 °F 59 °F 30 in ENE 1.9 mph 3.7 mph 77% 0 in 0.00 W/m2 unknown
04:29 66.2 °F 60.8 °F 30 in ENE 1.9 mph 3.7 mph 80% 0 in 0.00 W/m2 unknown
04:34 66.2 °F 60.8 °F 30 in ENE 1.2 mph 2.5 mph 83% 0 in 0.00 W/m2 unknown
04:39 66.2 °F 60.8 °F 30 in ENE 1.2 mph 2.5 mph 84% 0 in 0.00 W/m2 unknown
04:44 66.2 °F 60.8 °F 30 in ENE 1.2 mph 1.9 mph 86% 0.01 in 0.00 W/m2 unknown
04:49 66.2 °F 60.8 °F 30 in Calm   1.2 mph 87% 0.01 in 0.00 W/m2 unknown
04:54 66.2 °F 60.8 °F 30 in SE 2.5 mph 3.7 mph 87% 0.01 in 0.00 W/m2 unknown
04:59 64.4 °F 60.8 °F 30 in SE 2.5 mph 3.7 mph 88% 0.01 in 0.00 W/m2 unknown
05:04 64.4 °F 60.8 °F 30 in SSE 3.1 mph 5 mph 88% 0.01 in 0.00 W/m2 unknown
05:09 64.4 °F 60.8 °F 30 in SSE 3.1 mph 5 mph 87% 0.01 in 0.00 W/m2 unknown
05:14 64.4 °F 60.8 °F 30 in SE 3.1 mph 3.7 mph 86% 0.01 in 0.00 W/m2 unknown
05:19 64.4 °F 60.8 °F 30 in SE 1.9 mph 3.7 mph 86% 0.01 in 0.00 W/m2 unknown
05:24 64.4 °F 60.8 °F 30 in SE 1.2 mph 3.1 mph 86% 0.01 in 0.00 W/m2 unknown
05:29 64.4 °F 60.8 °F 30 in SE 1.9 mph 3.7 mph 87% 0.01 in 0.00 W/m2 unknown
05:34 64.4 °F 60.8 °F 30 in ESE 1.9 mph 3.7 mph 87% 0.01 in 0.00 W/m2 unknown
05:39 64.4 °F 60.8 °F 30 in East 1.2 mph 3.1 mph 86% 0.01 in 0.00 W/m2 unknown
05:44 64.4 °F 60.8 °F 30 in East 1.9 mph 2.5 mph 87% 0.01 in 0.00 W/m2 unknown
05:49 64.4 °F 60.8 °F 29.9 in ENE 3.1 mph 3.7 mph 86% 0 in 0.00 W/m2 unknown
05:54 64.4 °F 60.8 °F 29.9 in ESE 2.5 mph 3.7 mph 87% 0 in 0.00 W/m2 unknown
05:59 64.4 °F 60.8 °F 29.9 in ESE 1.9 mph 3.1 mph 88% 0 in 0.00 W/m2 unknown
06:04 64.4 °F 60.8 °F 29.9 in East 2.5 mph 3.7 mph 88% 0 in 0.00 W/m2 unknown
06:09 64.4 °F 60.8 °F 29.9 in NE 2.5 mph 3.7 mph 88% 0 in 0.00 W/m2 unknown
06:14 64.4 °F 60.8 °F 29.9 in NE 0.6 mph 3.1 mph 88% 0 in 0.00 W/m2 unknown
06:19 64.4 °F 60.8 °F 29.9 in NE 1.2 mph 2.5 mph 89% 0 in 0.00 W/m2 unknown
06:24 64.4 °F 60.8 °F 30 in Calm   1.9 mph 89% 0 in 0.00 W/m2 unknown
06:29 64.4 °F 60.8 °F 30 in Calm   1.2 mph 89% 0 in 0.00 W/m2 unknown
06:34 64.4 °F 60.8 °F 30 in Calm     89% 0 in 0.00 W/m2 unknown
06:39 64.4 °F 60.8 °F 30 in Calm     90% 0 in 0.00 W/m2 unknown
06:44 64.4 °F 60.8 °F 30 in Calm     90% 0 in 5.00 W/m2 unknown
06:49 64.4 °F 60.8 °F 30 in NE 2.5 mph 3.7 mph 90% 0 in 9.00 W/m2 unknown
06:54 64.4 °F 60.8 °F 30 in NE 3.1 mph 3.7 mph 89% 0 in 9.00 W/m2 unknown
06:59 64.4 °F 60.8 °F 30 in NE 3.7 mph 5 mph 88% 0 in 12.00 W/m2 unknown
07:04 64.4 °F 60.8 °F 30 in NE 3.1 mph 5 mph 86% 0 in 14.00 W/m2 unknown
07:09 64.4 °F 60.8 °F 30 in NE 2.5 mph 3.7 mph 86% 0 in 18.00 W/m2 unknown
07:14 64.4 °F 60.8 °F 30 in ENE 3.1 mph 3.7 mph 85% 0 in 21.00 W/m2 unknown
07:19 64.4 °F 60.8 °F 30 in ENE 3.1 mph 3.7 mph 85% 0 in 26.00 W/m2 unknown
07:24 64.4 °F 59 °F 30 in ENE 3.1 mph 5 mph 85% 0 in 32.00 W/m2 unknown
07:29 64.4 °F 59 °F 30 in ENE 4.3 mph 6.2 mph 84% 0 in 37.00 W/m2 unknown
07:34 64.4 °F 59 °F 29.9 in NE 4.3 mph 6.2 mph 84% 0 in 39.00 W/m2 unknown
07:39 64.4 °F 59 °F 29.9 in NE 4.3 mph 6.8 mph 84% 0 in 42.00 W/m2 unknown
07:44 64.4 °F 60.8 °F 29.9 in ENE 4.3 mph 6.8 mph 84% 0 in 51.00 W/m2 unknown
07:49 64.4 °F 60.8 °F 29.9 in ENE 3.1 mph 6.8 mph 84% 0 in 60.00 W/m2 unknown
07:54 64.4 °F 60.8 °F 29.9 in East 1.9 mph 5 mph 85% 0 in 70.00 W/m2 unknown
07:59 64.4 °F 60.8 °F 29.9 in ENE 1.9 mph 5 mph 85% 0 in 81.00 W/m2 unknown
08:04 64.4 °F 60.8 °F 29.9 in ENE 2.5 mph 3.7 mph 85% 0 in 81.00 W/m2 unknown
08:09 64.4 °F 60.8 °F 30 in ENE 3.1 mph 3.7 mph 84% 0 in 77.00 W/m2 unknown
08:14 66.2 °F 60.8 °F 30 in ENE 3.1 mph 5 mph 84% 0 in 67.00 W/m2 unknown
08:19 66.2 °F 60.8 °F 30 in ENE 2.5 mph 5 mph 84% 0 in 67.00 W/m2 unknown
08:24 66.2 °F 60.8 °F 30 in ENE 3.1 mph 3.7 mph 84% 0 in 77.00 W/m2 unknown
08:29 66.2 °F 60.8 °F 30 in ENE 3.1 mph 5 mph 84% 0 in 97.00 W/m2 unknown
08:34 66.2 °F 60.8 °F 30 in ENE 4.3 mph 6.2 mph 84% 0 in 178.00 W/m2 unknown
08:39 66.2 °F 60.8 °F 30 in ENE 3.7 mph 6.2 mph 84% 0 in 165.00 W/m2 unknown
08:44 66.2 °F 60.8 °F 30 in ENE 4.3 mph 6.8 mph 83% 0 in 199.00 W/m2 unknown
08:49 68 °F 60.8 °F 29.9 in ENE 5 mph 6.8 mph 82% 0 in 239.00 W/m2 unknown
08:53 68 °F 60.8 °F 30 in ENE 5 mph 6.8 mph 81% 0 in 274.00 W/m2 unknown
08:59 68 °F 62.6 °F 30 in NE 6.2 mph 8.7 mph 81% 0 in 320.00 W/m2 unknown
09:04 68 °F 62.6 °F 30 in ENE 7.5 mph 9.3 mph 79% 0 in 320.00 W/m2 unknown
09:09 69.8 °F 62.6 °F 29.9 in ENE 6.8 mph 9.3 mph 79% 0 in 357.00 W/m2 unknown
09:14 69.8 °F 62.6 °F 30 in ENE 7.5 mph 9.9 mph 79% 0 in 267.00 W/m2 unknown
09:19 69.8 °F 62.6 °F 30 in ENE 8.1 mph 11.8 mph 77% 0 in 334.00 W/m2 unknown
09:24 69.8 °F 60.8 °F 30 in ENE 7.5 mph 11.8 mph 75% 0 in 334.00 W/m2 unknown
09:29 69.8 °F 60.8 °F 30 in ENE 6.8 mph 11.8 mph 75% 0 in 237.00 W/m2 unknown
09:34 69.8 °F 60.8 °F 30 in ENE 6.8 mph 9.3 mph 75% 0 in 172.00 W/m2 unknown
09:39 69.8 °F 62.6 °F 30 in ENE 5.6 mph 8.7 mph 76% 0 in 158.00 W/m2 unknown
09:44 71.6 °F 62.6 °F 30 in ENE 5.6 mph 8.1 mph 76% 0 in 417.00 W/m2 unknown
09:49 71.6 °F 62.6 °F 30 in ENE 6.8 mph 8.7 mph 75% 0 in 471.00 W/m2 unknown
09:59 73.4 °F 62.6 °F 30 in ENE 9.3 mph 11.8 mph 72% 0 in 513.00 W/m2 unknown
10:04 73.4 °F 62.6 °F 30 in ENE 8.1 mph 11.8 mph 71% 0 in 554.00 W/m2 unknown
10:09 73.4 °F 62.6 °F 30 in ENE 9.9 mph 13 mph 69% 0 in 554.00 W/m2 unknown
10:14 73.4 °F 62.6 °F 30 in ENE 10.6 mph 14.9 mph 69% 0 in 624.00 W/m2 unknown
10:19 73.4 °F 62.6 °F 30 in East 10.6 mph 14.9 mph 68% 0 in 503.00 W/m2 unknown
10:24 73.4 °F 62.6 °F 30 in East 7.5 mph 14.9 mph 69% 0 in 503.00 W/m2 unknown
10:29 75.2 °F 62.6 °F 30 in ENE 9.3 mph 11.8 mph 67% 0 in 475.00 W/m2 unknown
10:34 75.2 °F 62.6 °F 30 in ENE 8.7 mph 13 mph 67% 0 in 448.00 W/m2 unknown
10:39 75.2 °F 62.6 °F 30 in East 8.1 mph 13 mph 68% 0 in 464.00 W/m2 unknown
10:44 73.4 °F 62.6 °F 30 in East 7.5 mph 13 mph 67% 0 in 394.00 W/m2 unknown
10:49 73.4 °F 62.6 °F 30 in East 8.7 mph 10.6 mph 68% 0 in 185.00 W/m2 unknown
10:54 73.4 °F 62.6 °F 30 in East 6.2 mph 9.9 mph 68% 0 in 199.00 W/m2 unknown
10:59 73.4 °F 62.6 °F 30 in East 6.2 mph 8.7 mph 68% 0 in 216.00 W/m2 unknown
11:04 73.4 °F 62.6 °F 30 in East 5.6 mph 8.1 mph 69% 0 in 190.00 W/m2 unknown
11:09 73.4 °F 62.6 °F 30 in East 5 mph 8.1 mph 70% 0 in 248.00 W/m2 unknown
11:14 73.4 °F 62.6 °F 30 in East 6.2 mph 9.3 mph 70% 0 in 547.00 W/m2 unknown
11:19 75.2 °F 64.4 °F 30 in East 5 mph 9.3 mph 70% 0 in 603.00 W/m2 unknown
11:24 75.2 °F 62.6 °F 30 in East 8.1 mph 10.6 mph 68% 0 in 603.00 W/m2 unknown
11:29 75.2 °F 62.6 °F 30 in ENE 7.5 mph 11.8 mph 66% 0 in 471.00 W/m2 unknown
11:34 75.2 °F 64.4 °F 30 in East 7.5 mph 11.8 mph 67% 0 in 510.00 W/m2 unknown
11:39 75.2 °F 64.4 °F 30 in ENE 8.1 mph 11.8 mph 67% 0 in 410.00 W/m2 unknown
11:44 75.2 °F 64.4 °F 30 in East 6.8 mph 10.6 mph 68% 0 in 304.00 W/m2 unknown
11:49 75.2 °F 64.4 °F 30 in East 6.8 mph 10.6 mph 68% 0 in 392.00 W/m2 unknown
11:54 75.2 °F 64.4 °F 30 in East 5.6 mph 9.9 mph 70% 0 in 399.00 W/m2 unknown
11:59 75.2 °F 64.4 °F 30 in East 6.2 mph 8.1 mph 70% 0 in 371.00 W/m2 unknown
12:04 75.2 °F 64.4 °F 30 in East 6.2 mph 8.1 mph 70% 0 in 380.00 W/m2 unknown
12:09 75.2 °F 64.4 °F 30 in East 7.5 mph 9.3 mph 70% 0 in 380.00 W/m2 unknown
12:14 75.2 °F 64.4 °F 30 in East 6.2 mph 8.7 mph 70% 0 in 415.00 W/m2 unknown
12:19 75.2 °F 64.4 °F 30 in East 5 mph 8.1 mph 70% 0 in 415.00 W/m2 unknown
12:24 77 °F 66.2 °F 30 in ESE 5.6 mph 8.1 mph 71% 0 in 780.00 W/m2 unknown
12:29 77 °F 66.2 °F 30 in ENE 6.2 mph 9.9 mph 70% 0 in 788.00 W/m2 unknown
12:34 77 °F 66.2 °F 30 in East 8.1 mph 10.6 mph 68% 0 in 786.00 W/m2 unknown
12:39 77 °F 66.2 °F 30 in East 6.8 mph 9.9 mph 68% 0 in 807.00 W/m2 unknown
12:44 77 °F 66.2 °F 30 in ENE 4.3 mph 8.1 mph 67% 0 in 807.00 W/m2 unknown
12:49 78.8 °F 66.2 °F 30 in East 5.6 mph 9.3 mph 68% 0 in 499.00 W/m2 unknown
12:54 78.8 °F 66.2 °F 30 in ESE 8.1 mph 10.6 mph 68% 0 in 388.00 W/m2 unknown
12:59 77 °F 66.2 °F 30 in ESE 6.2 mph 9.9 mph 67% 0 in 566.00 W/m2 unknown
13:04 77 °F 66.2 °F 30 in ESE 5 mph 8.1 mph 66% 0 in 561.00 W/m2 unknown
13:09 77 °F 66.2 °F 30 in East 6.2 mph 8.1 mph 67% 0 in 487.00 W/m2 unknown
13:14 78.8 °F 66.2 °F 30 in ESE 6.2 mph 8.1 mph 68% 0 in 935.00 W/m2 unknown
13:19 78.8 °F 66.2 °F 30 in ESE 8.1 mph 10.6 mph 67% 0 in 956.00 W/m2 unknown
13:24 78.8 °F 66.2 °F 30 in ESE 8.7 mph 13 mph 67% 0 in 902.00 W/m2 unknown
13:29 78.8 °F 66.2 °F 30 in ESE 8.7 mph 13 mph 65% 0 in 443.00 W/m2 unknown
13:34 78.8 °F 64.4 °F 30 in ESE 6.8 mph 11.8 mph 65% 0 in 385.00 W/m2 unknown
13:39 78.8 °F 66.2 °F 30 in ESE 7.5 mph 10.6 mph 67% 0 in 396.00 W/m2 unknown
13:44 78.8 °F 66.2 °F 30 in East 6.8 mph 9.9 mph 68% 0 in 380.00 W/m2 unknown
13:49 78.8 °F 66.2 °F 30 in East 6.2 mph 9.3 mph 67% 0 in 468.00 W/m2 unknown
13:54 77 °F 66.2 °F 30 in East 5.6 mph 9.9 mph 69% 0 in 468.00 W/m2 unknown
13:59 77 °F 66.2 °F 30 in ENE 6.2 mph 10.6 mph 69% 0 in 292.00 W/m2 unknown
14:04 77 °F 66.2 °F 30 in East 5 mph 9.9 mph 68% 0 in 241.00 W/m2 unknown
14:09 77 °F 66.2 °F 30 in ESE 5.6 mph 6.8 mph 68% 0 in 237.00 W/m2 unknown
14:14 77 °F 66.2 °F 30 in ESE 5.6 mph 8.1 mph 69% 0 in 295.00 W/m2 unknown
14:19 77 °F 66.2 °F 30 in ESE 5.6 mph 8.1 mph 70% 0 in 255.00 W/m2 unknown
14:24 77 °F 66.2 °F 30 in ESE 4.3 mph 8.1 mph 71% 0 in 244.00 W/m2 unknown
14:29 77 °F 66.2 °F 30 in ESE 3.7 mph 6.8 mph 71% 0 in 570.00 W/m2 unknown
14:34 78.8 °F 66.2 °F 30 in ESE 4.3 mph 8.1 mph 70% 0 in 570.00 W/m2 unknown
14:39 77 °F 66.2 °F 30 in ESE 4.3 mph 8.1 mph 69% 0 in 350.00 W/m2 unknown
14:44 77 °F 66.2 °F 30 in SE 5 mph 6.8 mph 69% 0 in 306.00 W/m2 unknown
14:49 77 °F 66.2 °F 30 in SE 5 mph 6.8 mph 68% 0 in 221.00 W/m2 unknown
14:54 77 °F 66.2 °F 30 in ESE 4.3 mph 6.8 mph 69% 0 in 211.00 W/m2 unknown
14:59 77 °F 66.2 °F 30 in ESE 5 mph 5 mph 70% 0 in 218.00 W/m2 unknown
15:04 77 °F 66.2 °F 30 in ESE 5 mph 6.8 mph 70% 0 in 213.00 W/m2 unknown
15:09 77 °F 66.2 °F 30 in ESE 4.3 mph 6.8 mph 70% 0 in 190.00 W/m2 unknown
15:14 77 °F 66.2 °F 30 in ESE 5 mph 6.2 mph 69% 0 in 190.00 W/m2 unknown
15:19 77 °F 66.2 °F 30 in ESE 2.5 mph 5 mph 70% 0 in 186.00 W/m2 unknown
15:24 77 °F 66.2 °F 30 in ESE 2.5 mph 5 mph 70% 0 in 171.00 W/m2 unknown
15:29 77 °F 66.2 °F 30 in ESE 2.5 mph 5 mph 69% 0 in 162.00 W/m2 unknown
15:34 77 °F 66.2 °F 30 in SSE 1.9 mph 3.7 mph 68% 0 in 200.00 W/m2 unknown
15:39 77 °F 66.2 °F 30 in SSE 1.2 mph 3.1 mph 69% 0 in 213.00 W/m2 unknown
15:44 77 °F 66.2 °F 29.9 in ESE 1.2 mph 2.5 mph 68% 0 in 221.00 W/m2 unknown
15:49 77 °F 66.2 °F 29.9 in ESE 1.2 mph 2.5 mph 69% 0 in 221.00 W/m2 unknown
15:54 77 °F 66.2 °F 29.9 in SSE 1.9 mph 3.7 mph 69% 0 in 213.00 W/m2 unknown
15:59 77 °F 66.2 °F 29.9 in SE 2.5 mph 3.7 mph 69% 0 in 202.00 W/m2 unknown
16:04 77 °F 66.2 °F 29.9 in SE 1.9 mph 3.7 mph 70% 0 in 202.00 W/m2 unknown
16:09 77 °F 68 °F 29.9 in ESE 2.5 mph 3.7 mph 71% 0 in 199.00 W/m2 unknown
16:14 77 °F 68 °F 29.9 in ESE 2.5 mph 3.7 mph 72% 0 in 190.00 W/m2 unknown
16:19 77 °F 68 °F 29.9 in SE 1.9 mph 3.7 mph 71% 0 in 185.00 W/m2 unknown
16:24 77 °F 68 °F 29.9 in SE 3.1 mph 3.7 mph 73% 0 in 209.00 W/m2 unknown
16:29 77 °F 68 °F 29.9 in SSE 3.1 mph 6.2 mph 71% 0 in 214.00 W/m2 unknown
16:34 77 °F 68 °F 29.9 in South 3.7 mph 6.2 mph 70% 0 in 343.00 W/m2 unknown
16:39 78.8 °F 68 °F 29.9 in SE 5 mph 8.1 mph 70% 0 in 417.00 W/m2 unknown
16:44 78.8 °F 68 °F 29.9 in ESE 5.6 mph 8.1 mph 70% 0 in 587.00 W/m2 unknown
16:49 78.8 °F 68 °F 29.9 in ESE 6.2 mph 8.1 mph 70% 0 in 531.00 W/m2 unknown
16:54 78.8 °F 68 °F 29.9 in ESE 5 mph 6.8 mph 68% 0 in 499.00 W/m2 unknown
16:59 78.8 °F 68 °F 29.9 in ESE 5.6 mph 6.8 mph 67% 0 in 387.00 W/m2 unknown
17:04 78.8 °F 68 °F 29.9 in ENE 5.6 mph 6.8 mph 69% 0 in 366.00 W/m2 unknown
17:09 78.8 °F 68 °F 29.9 in East 1.9 mph 6.8 mph 69% 0 in 490.00 W/m2 unknown
17:14 78.8 °F 68 °F 29.9 in SE 2.5 mph 3.7 mph 69% 0 in 355.00 W/m2 unknown
17:19 78.8 °F 68 °F 29.9 in SE 3.1 mph 3.7 mph 69% 0 in 392.00 W/m2 unknown
17:24 78.8 °F 68 °F 29.9 in ESE 2.5 mph 3.7 mph 68% 0 in 399.00 W/m2 unknown
17:29 78.8 °F 66.2 °F 29.9 in ESE 5 mph 6.2 mph 66% 0 in 394.00 W/m2 unknown
17:34 78.8 °F 66.2 °F 29.9 in ESE 5 mph 6.8 mph 66% 0 in 325.00 W/m2 unknown
17:39 78.8 °F 68 °F 29.9 in East 3.1 mph 6.8 mph 68% 0 in 325.00 W/m2 unknown
17:44 78.8 °F 66.2 °F 29.9 in ENE 2.5 mph 3.7 mph 66% 0 in 260.00 W/m2 unknown
17:49 78.8 °F 66.2 °F 29.9 in ENE 3.1 mph 5 mph 67% 0 in 292.00 W/m2 unknown
17:54 78.8 °F 68 °F 29.9 in East 3.1 mph 5 mph 68% 0 in 318.00 W/m2 unknown
17:59 78.8 °F 68 °F 29.9 in East 3.1 mph 5 mph 69% 0 in 352.00 W/m2 unknown
18:04 78.8 °F 68 °F 29.9 in SE 3.7 mph 5 mph 69% 0 in 332.00 W/m2 unknown
18:09 78.8 °F 68 °F 29.9 in ESE 3.7 mph 6.8 mph 67% 0 in 146.00 W/m2 unknown
18:14 78.8 °F 68 °F 29.9 in ESE 6.2 mph 8.1 mph 68% 0 in 230.00 W/m2 unknown
18:19 78.8 °F 68 °F 29.9 in ESE 6.2 mph 8.1 mph 68% 0 in 232.00 W/m2 unknown
18:24 78.8 °F 68 °F 29.9 in SSE 3.7 mph 8.1 mph 68% 0 in 192.00 W/m2 unknown
18:29 78.8 °F 68 °F 29.9 in South 3.7 mph 5 mph 68% 0 in 121.00 W/m2 unknown
18:34 78.8 °F 66.2 °F 29.9 in SSE 1.9 mph 5 mph 68% 0 in 113.00 W/m2 unknown
18:39 78.8 °F 66.2 °F 29.9 in SSW 3.7 mph 5 mph 68% 0 in 111.00 W/m2 unknown
18:44 78.8 °F 66.2 °F 29.9 in SSW 3.1 mph 5 mph 68% 0 in 100.00 W/m2 unknown
18:49 78.8 °F 66.2 °F 29.9 in SW 3.1 mph 3.7 mph 68% 0 in 127.00 W/m2 unknown
18:54 78.8 °F 68 °F 29.9 in SW 1.9 mph 3.7 mph 69% 0 in 84.00 W/m2 unknown
18:59 78.8 °F 68 °F 29.9 in SE 1.9 mph 3.7 mph 70% 0 in 76.00 W/m2 unknown
19:04 77 °F 68 °F 29.9 in SE 1.9 mph 3.7 mph 72% 0 in 77.00 W/m2 unknown
19:09 77 °F 68 °F 29.9 in SE 1.9 mph 3.1 mph 72% 0 in 65.00 W/m2 unknown
19:14 77 °F 68 °F 29.9 in SE 1.9 mph 2.5 mph 72% 0 in 46.00 W/m2 unknown
19:18 77 °F 68 °F 29.9 in SE 1.2 mph 1.9 mph 73% 0 in 35.00 W/m2 unknown
19:24 77 °F 68 °F 29.9 in SE 0.6 mph 1.2 mph 74% 0 in 32.00 W/m2 unknown
19:29 77 °F 68 °F 29.9 in SE 1.2 mph 2.5 mph 74% 0 in 26.00 W/m2 unknown
19:34 77 °F 68 °F 29.9 in Calm   1.9 mph 75% 0 in 23.00 W/m2 unknown
19:39 77 °F 68 °F 29.9 in SE 1.2 mph 2.5 mph 77% 0 in 19.00 W/m2 unknown
19:44 75.2 °F 68 °F 29.9 in SE 1.9 mph 2.5 mph 77% 0 in 14.00 W/m2 unknown
19:49 75.2 °F 68 °F 29.9 in East 2.5 mph 3.7 mph 78% 0 in 9.00 W/m2 unknown
19:54 75.2 °F 68 °F 29.9 in East 3.7 mph 6.8 mph 78% 0 in 0.00 W/m2 unknown
19:59 75.2 °F 68 °F 29.9 in East 2.5 mph 6.8 mph 79% 0 in 0.00 W/m2 unknown
20:04 75.2 °F 68 °F 29.9 in ESE 3.7 mph 5 mph 79% 0 in 0.00 W/m2 unknown
20:09 73.4 °F 68 °F 30 in ESE 2.5 mph 5 mph 80% 0 in 0.00 W/m2 unknown
20:14 73.4 °F 68 °F 30 in ESE 0.6 mph 5 mph 81% 0 in 0.00 W/m2 unknown
20:19 73.4 °F 68 °F 30 in ESE 1.2 mph 2.5 mph 81% 0 in 0.00 W/m2 unknown
20:24 73.4 °F 68 °F 30 in SE 1.2 mph 2.5 mph 81% 0 in 0.00 W/m2 unknown
20:29 73.4 °F 68 °F 30 in SSE 1.2 mph 3.1 mph 81% 0 in 0.00 W/m2 unknown
20:34 73.4 °F 68 °F 30 in SSE 1.2 mph 3.1 mph 81% 0 in 0.00 W/m2 unknown
20:39 73.4 °F 68 °F 30 in SE 1.9 mph 2.5 mph 82% 0 in 0.00 W/m2 unknown
20:44 73.4 °F 68 °F 30 in ESE 1.9 mph 2.5 mph 82% 0 in 0.00 W/m2 unknown
20:49 73.4 °F 68 °F 30 in ESE 1.2 mph 1.9 mph 82% 0 in 0.00 W/m2 unknown
20:54 73.4 °F 68 °F 30 in ESE 1.2 mph 1.2 mph 83% 0 in 0.00 W/m2 unknown
20:59 73.4 °F 68 °F 30 in ESE 0.6 mph 1.2 mph 83% 0 in 0.00 W/m2 unknown
21:04 73.4 °F 68 °F 30 in ESE 1.2 mph 1.9 mph 83% 0 in 0.00 W/m2 unknown
21:09 73.4 °F 68 °F 30 in NE 1.9 mph 2.5 mph 83% 0 in 0.00 W/m2 unknown
21:14 71.6 °F 68 °F 30 in NE 1.9 mph 2.5 mph 84% 0 in 0.00 W/m2 unknown
21:19 71.6 °F 68 °F 30 in NE 1.2 mph 1.9 mph 84% 0 in 0.00 W/m2 unknown
21:24 71.6 °F 68 °F 30 in Calm   1.2 mph 84% 0 in 0.00 W/m2 unknown
21:29 71.6 °F 68 °F 30 in Calm     84% 0 in 0.00 W/m2 unknown
21:34 71.6 °F 68 °F 30 in Calm     84% 0 in 0.00 W/m2 unknown
21:39 71.6 °F 68 °F 30 in Calm     84% 0 in 0.00 W/m2 unknown
21:44 71.6 °F 66.2 °F 30 in Calm     84% 0 in 0.00 W/m2 unknown
21:49 71.6 °F 66.2 °F 30 in Calm     84% 0 in 0.00 W/m2 unknown
21:54 71.6 °F 66.2 °F 30 in NE 0.6 mph 1.9 mph 85% 0 in 0.00 W/m2 unknown
21:59 71.6 °F 66.2 °F 30 in NE 1.2 mph 2.5 mph 85% 0 in 0.00 W/m2 unknown
22:04 71.6 °F 66.2 °F 30 in NE 1.2 mph 1.9 mph 85% 0 in 0.00 W/m2 unknown
22:09 71.6 °F 66.2 °F 30 in Calm   1.2 mph 86% 0 in 0.00 W/m2 unknown
22:14 71.6 °F 66.2 °F 30 in Calm     86% 0 in 0.00 W/m2 unknown
22:19 71.6 °F 66.2 °F 30 in Calm     86% 0 in 0.00 W/m2 unknown
22:24 71.6 °F 66.2 °F 30 in NE 0.6 mph 1.2 mph 86% 0 in 0.00 W/m2 unknown
22:29 69.8 °F 66.2 °F 30 in ESE 1.2 mph 1.2 mph 86% 0 in 0.00 W/m2 unknown
22:39 69.8 °F 66.2 °F 30 in ESE 0.6 mph 1.2 mph 87% 0 in 0.00 W/m2 unknown
22:44 69.8 °F 66.2 °F 30 in SE 1.9 mph 3.7 mph 86% 0 in 0.00 W/m2 unknown
22:49 71.6 °F 66.2 °F 30 in SE 1.2 mph 3.1 mph 86% 0 in 0.00 W/m2 unknown
22:54 71.6 °F 66.2 °F 30 in SE 1.2 mph 1.2 mph 86% 0 in 0.00 W/m2 unknown
22:59 71.6 °F 66.2 °F 30 in SE 0.6 mph 1.2 mph 86% 0 in 0.00 W/m2 unknown
23:04 69.8 °F 66.2 °F 30 in SE 0.6 mph 1.2 mph 86% 0 in 0.00 W/m2 unknown
23:09 69.8 °F 66.2 °F 30 in SE 0.6 mph 1.2 mph 86% 0 in 0.00 W/m2 unknown
23:14 69.8 °F 66.2 °F 30 in Calm   1.2 mph 86% 0 in 0.00 W/m2 unknown
23:19 69.8 °F 66.2 °F 30 in Calm   1.2 mph 87% 0 in 0.00 W/m2 unknown
23:24 69.8 °F 66.2 °F 30 in SE 1.2 mph 2.5 mph 87% 0 in 0.00 W/m2 unknown
23:29 69.8 °F 66.2 °F 30 in SE 1.2 mph 2.5 mph 87% 0 in 0.00 W/m2 unknown
23:34 69.8 °F 66.2 °F 30 in SE 1.2 mph 2.5 mph 87% 0 in 0.00 W/m2 unknown
23:39 69.8 °F 66.2 °F 30 in SE 1.2 mph 2.5 mph 87% 0 in 0.00 W/m2 unknown
23:44 69.8 °F 66.2 °F 30 in ENE 2.5 mph 3.7 mph 87% 0 in 0.00 W/m2 unknown
23:49 69.8 °F 66.2 °F 30 in ENE 1.9 mph 3.7 mph 88% 0 in 0.00 W/m2 unknown
23:54 69.8 °F 66.2 °F 30 in ENE 0.6 mph 3.1 mph 88% 0 in 0.00 W/m2 unknown
23:59 69.8 °F 66.2 °F 30 in ENE 1.2 mph 1.2 mph 88% 0 in 0.00 W/m2 unknown
Stazione Meteorologica MeteoMincio Rivalta s/M (MN)
Con i complimenti di Weather Underground - 4 mb



METEO PILLOLE
Il luogo più caldo della Terra
Dallol - Etiopia
La temperatura media dal 1960 al 1966 è stata di 34,5°C.
Share

Non seguire questo link o sarai bannato dal sito!